sensor_id;sensor_type;location;lat;lon;timestamp;pressure;altitude;pressure_sealevel;temperature;humidity
69318;BME280;56457;52.190;4.440;2023-03-29T00:00:36;101662.91;;;6.50;100.00
69318;BME280;56457;52.190;4.440;2023-03-29T00:01:36;101658.56;;;6.48;100.00
69318;BME280;56457;52.190;4.440;2023-03-29T00:02:41;101668.09;;;6.48;100.00
69318;BME280;56457;52.190;4.440;2023-03-29T00:03:41;101664.72;;;6.52;100.00
69318;BME280;56457;52.190;4.440;2023-03-29T00:04:44;101670.88;;;6.56;100.00
69318;BME280;56457;52.190;4.440;2023-03-29T00:05:45;101662.16;;;6.55;100.00
69318;BME280;56457;52.190;4.440;2023-03-29T00:06:45;101659.44;;;6.49;100.00
69318;BME280;56457;52.190;4.440;2023-03-29T00:07:47;101653.31;;;6.47;100.00
69318;BME280;56457;52.190;4.440;2023-03-29T00:08:53;101650.78;;;6.52;100.00
69318;BME280;56457;52.190;4.440;2023-03-29T00:09:53;101653.38;;;6.52;100.00
69318;BME280;56457;52.190;4.440;2023-03-29T00:10:54;101652.56;;;6.53;100.00
69318;BME280;56457;52.190;4.440;2023-03-29T00:11:55;101647.44;;;6.57;100.00
69318;BME280;56457;52.190;4.440;2023-03-29T00:12:56;101649.25;;;6.60;100.00
69318;BME280;56457;52.190;4.440;2023-03-29T00:13:56;101643.19;;;6.61;100.00
69318;BME280;56457;52.190;4.440;2023-03-29T00:14:56;101645.66;;;6.55;100.00
69318;BME280;56457;52.190;4.440;2023-03-29T00:15:57;101646.56;;;6.58;100.00
69318;BME280;56457;52.190;4.440;2023-03-29T00:16:57;101649.25;;;6.60;100.00
69318;BME280;56457;52.190;4.440;2023-03-29T00:17:57;101639.47;;;6.51;100.00
69318;BME280;56457;52.190;4.440;2023-03-29T00:18:58;101644.75;;;6.53;100.00
69318;BME280;56457;52.190;4.440;2023-03-29T00:19:58;101645.53;;;6.50;100.00
69318;BME280;56457;52.190;4.440;2023-03-29T00:20:59;101640.47;;;6.56;100.00
69318;BME280;56457;52.190;4.440;2023-03-29T00:22:00;101644.03;;;6.60;100.00
69318;BME280;56457;52.190;4.440;2023-03-29T00:23:00;101639.72;;;6.62;100.00
69318;BME280;56457;52.190;4.440;2023-03-29T00:24:01;101640.63;;;6.64;100.00
69318;BME280;56457;52.190;4.440;2023-03-29T00:25:01;101637.19;;;6.65;100.00
69318;BME280;56457;52.190;4.440;2023-03-29T00:26:01;101633.72;;;6.66;100.00
69318;BME280;56457;52.190;4.440;2023-03-29T00:27:02;101632.03;;;6.68;100.00
69318;BME280;56457;52.190;4.440;2023-03-29T00:28:03;101640.66;;;6.65;100.00
69318;BME280;56457;52.190;4.440;2023-03-29T00:29:03;101631.16;;;6.69;100.00
69318;BME280;56457;52.190;4.440;2023-03-29T00:30:04;101633.78;;;6.70;100.00
69318;BME280;56457;52.190;4.440;2023-03-29T00:31:06;101626.78;;;6.66;100.00
69318;BME280;56457;52.190;4.440;2023-03-29T00:32:06;101635.63;;;6.74;100.00
69318;BME280;56457;52.190;4.440;2023-03-29T00:33:07;101627.78;;;6.73;100.00
69318;BME280;56457;52.190;4.440;2023-03-29T00:34:07;101626.94;;;6.75;100.00
69318;BME280;56457;52.190;4.440;2023-03-29T00:35:08;101620.75;;;6.69;100.00
69318;BME280;56457;52.190;4.440;2023-03-29T00:36:09;101621.69;;;6.72;100.00
69318;BME280;56457;52.190;4.440;2023-03-29T00:37:10;101615.66;;;6.75;100.00
69318;BME280;56457;52.190;4.440;2023-03-29T00:38:11;101614.84;;;6.78;100.00
69318;BME280;56457;52.190;4.440;2023-03-29T00:39:11;101612.13;;;6.73;100.00
69318;BME280;56457;52.190;4.440;2023-03-29T00:40:11;101610.44;;;6.75;100.00
69318;BME280;56457;52.190;4.440;2023-03-29T00:41:12;101609.69;;;6.81;100.00
69318;BME280;56457;52.190;4.440;2023-03-29T00:42:13;101609.69;;;6.81;100.00
69318;BME280;56457;52.190;4.440;2023-03-29T00:43:14;101609.69;;;6.81;100.00
69318;BME280;56457;52.190;4.440;2023-03-29T00:45:33;101618.34;;;6.80;100.00
69318;BME280;56457;52.190;4.440;2023-03-29T00:46:35;101610.63;;;6.84;100.00
69318;BME280;56457;52.190;4.440;2023-03-29T00:47:39;101609.75;;;6.84;100.00
69318;BME280;56457;52.190;4.440;2023-03-29T00:48:41;101606.28;;;6.85;100.00
69318;BME280;56457;52.190;4.440;2023-03-29T00:49:41;101598.50;;;6.86;100.00
69318;BME280;56457;52.190;4.440;2023-03-29T00:51:46;101598.59;;;6.92;100.00
69318;BME280;56457;52.190;4.440;2023-03-29T00:52:48;101596.91;;;6.94;100.00
69318;BME280;56457;52.190;4.440;2023-03-29T00:53:52;101596.91;;;6.94;100.00
69318;BME280;56457;52.190;4.440;2023-03-29T00:54:54;101600.44;;;6.96;100.00
69318;BME280;56457;52.190;4.440;2023-03-29T00:56:02;101590.03;;;6.98;100.00
69318;BME280;56457;52.190;4.440;2023-03-29T00:57:05;101594.50;;;7.05;100.00
69318;BME280;56457;52.190;4.440;2023-03-29T00:58:08;101591.88;;;7.04;100.00
69318;BME280;56457;52.190;4.440;2023-03-29T00:59:12;101591.00;;;7.03;100.00
69318;BME280;56457;52.190;4.440;2023-03-29T01:00:15;101595.34;;;7.04;100.00
69318;BME280;56457;52.190;4.440;2023-03-29T01:01:21;101584.06;;;7.07;100.00
69318;BME280;56457;52.190;4.440;2023-03-29T01:02:25;101585.91;;;7.11;100.00
69318;BME280;56457;52.190;4.440;2023-03-29T01:03:28;101583.28;;;7.11;100.00
69318;BME280;56457;52.190;4.440;2023-03-29T01:04:33;101578.97;;;7.13;100.00
69318;BME280;56457;52.190;4.440;2023-03-29T01:05:40;101573.81;;;7.14;100.00
69318;BME280;56457;52.190;4.440;2023-03-29T01:06:42;101582.56;;;7.18;100.00
69318;BME280;56457;52.190;4.440;2023-03-29T01:07:54;101571.13;;;7.13;100.00
69318;BME280;56457;52.190;4.440;2023-03-29T01:08:58;101571.22;;;7.17;100.00
69318;BME280;56457;52.190;4.440;2023-03-29T01:10:05;101566.00;;;7.17;100.00
69318;BME280;56457;52.190;4.440;2023-03-29T01:11:09;101563.44;;;7.19;100.00
69318;BME280;56457;52.190;4.440;2023-03-29T01:12:14;101570.44;;;7.21;100.00
69318;BME280;56457;52.190;4.440;2023-03-29T01:13:17;101574.81;;;7.24;100.00
69318;BME280;56457;52.190;4.440;2023-03-29T01:14:28;101568.75;;;7.25;100.00
69318;BME280;56457;52.190;4.440;2023-03-29T01:15:32;101571.34;;;7.23;100.00
69318;BME280;56457;52.190;4.440;2023-03-29T01:16:34;101561.69;;;7.19;100.00
69318;BME280;56457;52.190;4.440;2023-03-29T01:17:35;101569.53;;;7.19;100.00
69318;BME280;56457;52.190;4.440;2023-03-29T01:18:35;101574.69;;;7.15;100.00
69318;BME280;56457;52.190;4.440;2023-03-29T01:19:41;101572.19;;;7.22;100.00
69318;BME280;56457;52.190;4.440;2023-03-29T01:20:50;101575.66;;;7.21;100.00
69318;BME280;56457;52.190;4.440;2023-03-29T01:22:43;101567.91;;;7.26;100.00
69318;BME280;56457;52.190;4.440;2023-03-29T01:24:32;101558.38;;;7.28;100.00
69318;BME280;56457;52.190;4.440;2023-03-29T01:28:11;101561.88;;;7.30;100.00
69318;BME280;56457;52.190;4.440;2023-03-29T01:29:33;101552.22;;;7.26;100.00
69318;BME280;56457;52.190;4.440;2023-03-29T01:30:39;101554.03;;;7.27;100.00
69318;BME280;56457;52.190;4.440;2023-03-29T01:31:43;101550.47;;;7.25;100.00
69318;BME280;56457;52.190;4.440;2023-03-29T01:32:51;101552.31;;;7.29;100.00
69318;BME280;56457;52.190;4.440;2023-03-29T01:33:57;101556.66;;;7.30;100.00
69318;BME280;56457;52.190;4.440;2023-03-29T01:35:05;101550.56;;;7.29;100.00
69318;BME280;56457;52.190;4.440;2023-03-29T01:38:32;101546.22;;;7.30;100.00
69318;BME280;56457;52.190;4.440;2023-03-29T01:39:33;101549.72;;;7.32;100.00
69318;BME280;56457;52.190;4.440;2023-03-29T01:40:34;101542.78;;;7.33;100.00
69318;BME280;56457;52.190;4.440;2023-03-29T01:41:39;101553.22;;;7.33;100.00
69318;BME280;56457;52.190;4.440;2023-03-29T01:42:51;101555.88;;;7.34;100.00
69318;BME280;56457;52.190;4.440;2023-03-29T01:45:37;101556.78;;;7.36;100.00
69318;BME280;56457;52.190;4.440;2023-03-29T01:46:44;101556.78;;;7.36;100.00
69318;BME280;56457;52.190;4.440;2023-03-29T01:47:46;101550.66;;;7.34;100.00
69318;BME280;56457;52.190;4.440;2023-03-29T01:51:13;101541.84;;;7.27;100.00
69318;BME280;56457;52.190;4.440;2023-03-29T01:52:19;101547.13;;;7.32;100.00
69318;BME280;56457;52.190;4.440;2023-03-29T01:53:24;101541.97;;;7.35;100.00
69318;BME280;56457;52.190;4.440;2023-03-29T01:55:30;101543.63;;;7.32;100.00
69318;BME280;56457;52.190;4.440;2023-03-29T01:56:33;101539.28;;;7.31;100.00
69318;BME280;56457;52.190;4.440;2023-03-29T01:57:35;101544.50;;;7.32;100.00
69318;BME280;56457;52.190;4.440;2023-03-29T01:58:39;101541.94;;;7.34;100.00
69318;BME280;56457;52.190;4.440;2023-03-29T01:59:42;101540.22;;;7.36;100.00
69318;BME280;56457;52.190;4.440;2023-03-29T02:00:43;101538.50;;;7.36;100.00
69318;BME280;56457;52.190;4.440;2023-03-29T02:01:46;101540.16;;;7.33;100.00
69318;BME280;56457;52.190;4.440;2023-03-29T02:02:48;101538.47;;;7.35;100.00
69318;BME280;56457;52.190;4.440;2023-03-29T02:03:50;101536.75;;;7.35;100.00
69318;BME280;56457;52.190;4.440;2023-03-29T02:04:53;101541.91;;;7.32;100.00
69318;BME280;56457;52.190;4.440;2023-03-29T02:05:55;101539.34;;;7.35;100.00
69318;BME280;56457;52.190;4.440;2023-03-29T02:06:57;101542.81;;;7.34;100.00
69318;BME280;56457;52.190;4.440;2023-03-29T02:08:00;101543.72;;;7.36;100.00
69318;BME280;56457;52.190;4.440;2023-03-29T02:09:02;101535.88;;;7.36;100.00
69318;BME280;56457;52.190;4.440;2023-03-29T02:10:04;101531.47;;;7.32;100.00
69318;BME280;56457;52.190;4.440;2023-03-29T02:11:05;101540.22;;;7.34;100.00
69318;BME280;56457;52.190;4.440;2023-03-29T02:12:06;101534.03;;;7.31;100.00
69318;BME280;56457;52.190;4.440;2023-03-29T02:13:08;101547.13;;;7.32;100.00
69318;BME280;56457;52.190;4.440;2023-03-29T02:14:08;101538.47;;;7.33;100.00
69318;BME280;56457;52.190;4.440;2023-03-29T02:15:10;101530.69;;;7.38;100.00
69318;BME280;56457;52.190;4.440;2023-03-29T02:16:11;101531.53;;;7.35;100.00
69318;BME280;56457;52.190;4.440;2023-03-29T02:17:19;101531.56;;;7.38;100.00
69318;BME280;56457;52.190;4.440;2023-03-29T02:18:20;101522.91;;;7.39;100.00
69318;BME280;56457;52.190;4.440;2023-03-29T02:19:21;101522.84;;;7.36;100.00
69318;BME280;56457;52.190;4.440;2023-03-29T02:20:24;101521.94;;;7.34;100.00
69318;BME280;56457;52.190;4.440;2023-03-29T02:21:27;101527.22;;;7.39;100.00
69318;BME280;56457;52.190;4.440;2023-03-29T02:22:31;101524.66;;;7.40;100.00
69318;BME280;56457;52.190;4.440;2023-03-29T02:23:36;101527.22;;;7.39;100.00
69318;BME280;56457;52.190;4.440;2023-03-29T02:24:40;101522.94;;;7.42;100.00
69318;BME280;56457;52.190;4.440;2023-03-29T02:25:41;101525.53;;;7.41;100.00
69318;BME280;56457;52.190;4.440;2023-03-29T02:26:42;101527.28;;;7.43;100.00
69318;BME280;56457;52.190;4.440;2023-03-29T02:27:42;101526.41;;;7.41;100.00
69318;BME280;56457;52.190;4.440;2023-03-29T02:28:43;101520.31;;;7.41;100.00
69318;BME280;56457;52.190;4.440;2023-03-29T02:29:44;101519.47;;;7.43;100.00
69318;BME280;56457;52.190;4.440;2023-03-29T02:32:07;101520.31;;;7.41;100.00
69318;BME280;56457;52.190;4.440;2023-03-29T02:33:09;101516.84;;;7.42;100.00
69318;BME280;56457;52.190;4.440;2023-03-29T02:35:23;101521.16;;;7.40;100.00
69318;BME280;56457;52.190;4.440;2023-03-29T02:36:28;101510.75;;;7.43;100.00
69318;BME280;56457;52.190;4.440;2023-03-29T02:37:31;101507.25;;;7.42;100.00
69318;BME280;56457;52.190;4.440;2023-03-29T02:38:33;101510.78;;;7.44;100.00
69318;BME280;56457;52.190;4.440;2023-03-29T02:39:34;101508.16;;;7.44;100.00
69318;BME280;56457;52.190;4.440;2023-03-29T02:40:35;101512.56;;;7.45;100.00
69318;BME280;56457;52.190;4.440;2023-03-29T02:41:37;101513.28;;;7.38;100.00
69318;BME280;56457;52.190;4.440;2023-03-29T02:42:40;101502.00;;;7.39;100.00
69318;BME280;56457;52.190;4.440;2023-03-29T02:43:42;101511.59;;;7.40;100.00
69318;BME280;56457;52.190;4.440;2023-03-29T02:44:45;101502.91;;;7.43;100.00
69318;BME280;56457;52.190;4.440;2023-03-29T02:45:47;101502.88;;;7.40;100.00
69318;BME280;56457;52.190;4.440;2023-03-29T02:46:48;101502.81;;;7.37;100.00
69318;BME280;56457;52.190;4.440;2023-03-29T02:47:53;101501.09;;;7.37;100.00
69318;BME280;56457;52.190;4.440;2023-03-29T02:48:55;101508.13;;;7.43;100.00
69318;BME280;56457;52.190;4.440;2023-03-29T02:49:57;101498.56;;;7.42;100.00
69318;BME280;56457;52.190;4.440;2023-03-29T02:50:59;101499.44;;;7.42;100.00
69318;BME280;56457;52.190;4.440;2023-03-29T02:52:01;101495.06;;;7.41;100.00
69318;BME280;56457;52.190;4.440;2023-03-29T02:53:09;101496.81;;;7.41;100.00
69318;BME280;56457;52.190;4.440;2023-03-29T02:54:13;101495.06;;;7.41;100.00
69318;BME280;56457;52.190;4.440;2023-03-29T02:55:14;101502.06;;;7.44;100.00
69318;BME280;56457;52.190;4.440;2023-03-29T02:56:17;101498.56;;;7.42;100.00
69318;BME280;56457;52.190;4.440;2023-03-29T02:57:17;101495.09;;;7.44;100.00
69318;BME280;56457;52.190;4.440;2023-03-29T02:58:25;101495.97;;;7.45;100.00
69318;BME280;56457;52.190;4.440;2023-03-29T02:59:27;101499.50;;;7.47;100.00
69318;BME280;56457;52.190;4.440;2023-03-29T03:00:35;101502.94;;;7.44;100.00
69318;BME280;56457;52.190;4.440;2023-03-29T03:01:37;101502.13;;;7.47;100.00
69318;BME280;56457;52.190;4.440;2023-03-29T03:02:38;101500.41;;;7.49;100.00
69318;BME280;56457;52.190;4.440;2023-03-29T03:03:38;101496.94;;;7.50;100.00
69318;BME280;56457;52.190;4.440;2023-03-29T03:04:39;101491.69;;;7.48;100.00
69318;BME280;56457;52.190;4.440;2023-03-29T03:05:40;101491.72;;;7.50;100.00
69318;BME280;56457;52.190;4.440;2023-03-29T03:06:40;101493.44;;;7.49;100.00
69318;BME280;56457;52.190;4.440;2023-03-29T03:07:41;101487.41;;;7.52;100.00
69318;BME280;56457;52.190;4.440;2023-03-29T03:08:41;101491.72;;;7.51;100.00
69318;BME280;56457;52.190;4.440;2023-03-29T03:09:41;101493.50;;;7.52;100.00
69318;BME280;56457;52.190;4.440;2023-03-29T03:10:41;101490.91;;;7.54;100.00
69318;BME280;56457;52.190;4.440;2023-03-29T03:11:42;101483.91;;;7.51;100.00
69318;BME280;56457;52.190;4.440;2023-03-29T03:12:42;101491.72;;;7.50;100.00
69318;BME280;56457;52.190;4.440;2023-03-29T03:13:43;101489.16;;;7.53;100.00
69318;BME280;56457;52.190;4.440;2023-03-29T03:14:43;101483.94;;;7.53;100.00
69318;BME280;56457;52.190;4.440;2023-03-29T03:15:43;101491.78;;;7.54;100.00
69318;BME280;56457;52.190;4.440;2023-03-29T03:16:48;101483.97;;;7.56;100.00
69318;BME280;56457;52.190;4.440;2023-03-29T03:17:48;101478.75;;;7.56;100.00
69318;BME280;56457;52.190;4.440;2023-03-29T03:18:49;101479.63;;;7.56;100.00
69318;BME280;56457;52.190;4.440;2023-03-29T03:19:50;101483.09;;;7.57;100.00
69318;BME280;56457;52.190;4.440;2023-03-29T03:20:57;101471.78;;;7.55;100.00
69318;BME280;56457;52.190;4.440;2023-03-29T03:21:58;101473.50;;;7.54;100.00
69318;BME280;56457;52.190;4.440;2023-03-29T03:22:58;101476.09;;;7.53;100.00
69318;BME280;56457;52.190;4.440;2023-03-29T03:24:00;101481.34;;;7.54;100.00
69318;BME280;56457;52.190;4.440;2023-03-29T03:25:00;101477.06;;;7.58;100.00
69318;BME280;56457;52.190;4.440;2023-03-29T03:26:00;101480.50;;;7.57;100.00
69318;BME280;56457;52.190;4.440;2023-03-29T03:27:01;101478.72;;;7.54;100.00
69318;BME280;56457;52.190;4.440;2023-03-29T03:28:01;101480.47;;;7.52;100.00
69318;BME280;56457;52.190;4.440;2023-03-29T03:29:01;101478.72;;;7.53;100.00
69318;BME280;56457;52.190;4.440;2023-03-29T03:30:02;101477.84;;;7.52;100.00
69318;BME280;56457;52.190;4.440;2023-03-29T03:31:04;101482.22;;;7.56;100.00
69318;BME280;56457;52.190;4.440;2023-03-29T03:32:05;101478.75;;;7.57;100.00
69318;BME280;56457;52.190;4.440;2023-03-29T03:33:05;101475.25;;;7.55;100.00
69318;BME280;56457;52.190;4.440;2023-03-29T03:34:08;101470.94;;;7.57;100.00
69318;BME280;56457;52.190;4.440;2023-03-29T03:35:09;101471.78;;;7.56;100.00
69318;BME280;56457;52.190;4.440;2023-03-29T03:36:10;101471.84;;;7.60;100.00
69318;BME280;56457;52.190;4.440;2023-03-29T03:37:11;101466.63;;;7.58;100.00
69318;BME280;56457;52.190;4.440;2023-03-29T03:38:11;101456.16;;;7.58;100.00
69318;BME280;56457;52.190;4.440;2023-03-29T03:39:11;101465.72;;;7.57;100.00
69318;BME280;56457;52.190;4.440;2023-03-29T03:40:12;101464.00;;;7.60;100.00
69318;BME280;56457;52.190;4.440;2023-03-29T03:41:12;101465.75;;;7.61;100.00
69318;BME280;56457;52.190;4.440;2023-03-29T03:42:13;101471.00;;;7.62;100.00
69318;BME280;56457;52.190;4.440;2023-03-29T03:43:13;101454.53;;;7.65;100.00
69318;BME280;56457;52.190;4.440;2023-03-29T03:44:13;101461.50;;;7.66;100.00
69318;BME280;56457;52.190;4.440;2023-03-29T03:45:14;101465.84;;;7.67;100.00
69318;BME280;56457;52.190;4.440;2023-03-29T03:46:14;101462.41;;;7.69;100.00
69318;BME280;56457;52.190;4.440;2023-03-29T03:47:16;101463.31;;;7.71;100.00
69318;BME280;56457;52.190;4.440;2023-03-29T03:48:16;101465.00;;;7.69;100.00
69318;BME280;56457;52.190;4.440;2023-03-29T03:49:16;101465.00;;;7.69;100.00
69318;BME280;56457;52.190;4.440;2023-03-29T03:50:18;101467.63;;;7.69;100.00
69318;BME280;56457;52.190;4.440;2023-03-29T03:51:18;101466.81;;;7.72;100.00
69318;BME280;56457;52.190;4.440;2023-03-29T03:52:19;101458.97;;;7.73;100.00
69318;BME280;56457;52.190;4.440;2023-03-29T03:53:19;101464.19;;;7.72;100.00
69318;BME280;56457;52.190;4.440;2023-03-29T03:54:20;101461.59;;;7.73;100.00
69318;BME280;56457;52.190;4.440;2023-03-29T03:55:20;101458.09;;;7.71;100.00
69318;BME280;56457;52.190;4.440;2023-03-29T03:56:21;101460.72;;;7.73;100.00
69318;BME280;56457;52.190;4.440;2023-03-29T03:57:21;101458.97;;;7.72;100.00
69318;BME280;56457;52.190;4.440;2023-03-29T03:58:22;101462.47;;;7.74;100.00
69318;BME280;56457;52.190;4.440;2023-03-29T03:59:23;101456.38;;;7.73;100.00
69318;BME280;56457;52.190;4.440;2023-03-29T04:00:23;101453.75;;;7.73;100.00
69318;BME280;56457;52.190;4.440;2023-03-29T04:01:24;101456.38;;;7.75;100.00
69318;BME280;56457;52.190;4.440;2023-03-29T04:02:26;101461.53;;;7.69;100.00
69318;BME280;56457;52.190;4.440;2023-03-29T04:03:27;101452.81;;;7.70;100.00
69318;BME280;56457;52.190;4.440;2023-03-29T04:04:27;101442.38;;;7.70;100.00
69318;BME280;56457;52.190;4.440;2023-03-29T04:05:27;101446.78;;;7.71;100.00
69318;BME280;56457;52.190;4.440;2023-03-29T04:06:28;101450.28;;;7.76;100.00
69318;BME280;56457;52.190;4.440;2023-03-29T04:07:29;101452.06;;;7.77;100.00
69318;BME280;56457;52.190;4.440;2023-03-29T04:08:30;101446.00;;;7.78;100.00
69318;BME280;56457;52.190;4.440;2023-03-29T04:09:31;101448.59;;;7.76;100.00
69318;BME280;56457;52.190;4.440;2023-03-29T04:10:32;101455.56;;;7.79;100.00
69318;BME280;56457;52.190;4.440;2023-03-29T04:11:33;101450.38;;;7.82;100.00
69318;BME280;56457;52.190;4.440;2023-03-29T04:12:34;101446.88;;;7.81;100.00
69318;BME280;56457;52.190;4.440;2023-03-29T04:13:34;101451.28;;;7.82;100.00
69318;BME280;56457;52.190;4.440;2023-03-29T04:14:35;101449.53;;;7.83;100.00
69318;BME280;56457;52.190;4.440;2023-03-29T04:15:35;101446.09;;;7.86;100.00
69318;BME280;56457;52.190;4.440;2023-03-29T04:16:39;101446.97;;;7.86;100.00
69318;BME280;56457;52.190;4.440;2023-03-29T04:17:39;101437.38;;;7.87;100.00
69318;BME280;56457;52.190;4.440;2023-03-29T04:18:39;101439.97;;;7.85;100.00
69318;BME280;56457;52.190;4.440;2023-03-29T04:19:40;101440.78;;;7.79;100.00
69318;BME280;56457;52.190;4.440;2023-03-29T04:20:40;101433.00;;;7.84;100.00
69318;BME280;56457;52.190;4.440;2023-03-29T04:21:40;101437.34;;;7.83;100.00
69318;BME280;56457;52.190;4.440;2023-03-29T04:22:42;101434.75;;;7.85;100.00
69318;BME280;56457;52.190;4.440;2023-03-29T04:23:42;101437.38;;;7.85;100.00
69318;BME280;56457;52.190;4.440;2023-03-29T04:24:42;101439.13;;;7.88;100.00
69318;BME280;56457;52.190;4.440;2023-03-29T04:25:42;101436.56;;;7.89;100.00
69318;BME280;56457;52.190;4.440;2023-03-29T04:26:43;101429.59;;;7.90;100.00
69318;BME280;56457;52.190;4.440;2023-03-29T04:27:43;101438.31;;;7.92;100.00
69318;BME280;56457;52.190;4.440;2023-03-29T04:28:44;101433.09;;;7.92;100.00
69318;BME280;56457;52.190;4.440;2023-03-29T04:29:45;101432.22;;;7.91;100.00
69318;BME280;56457;52.190;4.440;2023-03-29T04:30:45;101430.50;;;7.93;100.00
69318;BME280;56457;52.190;4.440;2023-03-29T04:31:47;101432.22;;;7.93;100.00
69318;BME280;56457;52.190;4.440;2023-03-29T04:32:47;101433.97;;;7.94;100.00
69318;BME280;56457;52.190;4.440;2023-03-29T04:33:47;101425.28;;;7.95;100.00
69318;BME280;56457;52.190;4.440;2023-03-29T04:34:48;101427.91;;;7.95;100.00
69318;BME280;56457;52.190;4.440;2023-03-29T04:35:48;101428.81;;;7.98;100.00
69318;BME280;56457;52.190;4.440;2023-03-29T04:36:48;101431.41;;;7.95;100.00
69318;BME280;56457;52.190;4.440;2023-03-29T04:37:49;101430.56;;;7.96;100.00
69318;BME280;56457;52.190;4.440;2023-03-29T04:38:50;101424.47;;;8.00;100.00
69318;BME280;56457;52.190;4.440;2023-03-29T04:39:51;101423.59;;;8.00;100.00
69318;BME280;56457;52.190;4.440;2023-03-29T04:40:51;101422.72;;;7.99;100.00
69318;BME280;56457;52.190;4.440;2023-03-29T04:41:54;101424.47;;;8.00;100.00
69318;BME280;56457;52.190;4.440;2023-03-29T04:42:54;101428.88;;;8.03;100.00
69318;BME280;56457;52.190;4.440;2023-03-29T04:43:54;101427.97;;;8.01;100.00
69318;BME280;56457;52.190;4.440;2023-03-29T04:44:55;101421.03;;;8.01;100.00
69318;BME280;56457;52.190;4.440;2023-03-29T04:45:56;101420.19;;;8.04;100.00
69318;BME280;56457;52.190;4.440;2023-03-29T04:46:56;101426.28;;;8.04;100.00
69318;BME280;56457;52.190;4.440;2023-03-29T04:47:57;101431.50;;;8.01;100.00
69318;BME280;56457;52.190;4.440;2023-03-29T04:49:00;101426.22;;;8.00;100.00
69318;BME280;56457;52.190;4.440;2023-03-29T04:50:01;101425.41;;;8.02;100.00
69318;BME280;56457;52.190;4.440;2023-03-29T04:51:01;101418.44;;;8.01;100.00
69318;BME280;56457;52.190;4.440;2023-03-29T04:52:02;101421.91;;;8.03;100.00
69318;BME280;56457;52.190;4.440;2023-03-29T04:53:02;101420.19;;;8.05;100.00
69318;BME280;56457;52.190;4.440;2023-03-29T04:54:02;101417.59;;;8.07;100.00
69318;BME280;56457;52.190;4.440;2023-03-29T04:55:03;101415.91;;;8.09;100.00
69318;BME280;56457;52.190;4.440;2023-03-29T04:56:04;101425.50;;;8.12;100.00
69318;BME280;56457;52.190;4.440;2023-03-29T04:57:05;101425.47;;;8.08;100.00
69318;BME280;56457;52.190;4.440;2023-03-29T04:58:06;101426.28;;;8.06;100.00
69318;BME280;56457;52.190;4.440;2023-03-29T04:59:06;101424.56;;;8.06;100.00
69318;BME280;56457;52.190;4.440;2023-03-29T05:00:07;101431.56;;;8.07;100.00
69318;BME280;56457;52.190;4.440;2023-03-29T05:01:13;101436.75;;;8.06;100.00
69318;BME280;56457;52.190;4.440;2023-03-29T05:02:13;101438.53;;;8.08;100.00
69318;BME280;56457;52.190;4.440;2023-03-29T05:03:14;101435.06;;;8.09;100.00
69318;BME280;56457;52.190;4.440;2023-03-29T05:04:14;101441.19;;;8.13;100.00
69318;BME280;56457;52.190;4.440;2023-03-29T05:05:15;101437.69;;;8.13;100.00
69318;BME280;56457;52.190;4.440;2023-03-29T05:06:15;101440.31;;;8.13;100.00
69318;BME280;56457;52.190;4.440;2023-03-29T05:07:16;101442.03;;;8.12;100.00
69318;BME280;56457;52.190;4.440;2023-03-29T05:08:17;101443.78;;;8.13;100.00
69318;BME280;56457;52.190;4.440;2023-03-29T05:09:17;101444.72;;;8.17;100.00
69318;BME280;56457;52.190;4.440;2023-03-29T05:10:17;101449.09;;;8.18;100.00
69318;BME280;56457;52.190;4.440;2023-03-29T05:11:18;101448.19;;;8.14;100.00
69318;BME280;56457;52.190;4.440;2023-03-29T05:12:18;101443.84;;;8.16;100.00
69318;BME280;56457;52.190;4.440;2023-03-29T05:13:19;101444.75;;;8.20;100.00
69318;BME280;56457;52.190;4.440;2023-03-29T05:14:19;101452.59;;;8.20;100.00
69318;BME280;56457;52.190;4.440;2023-03-29T05:15:20;101449.13;;;8.21;100.00
69318;BME280;56457;52.190;4.440;2023-03-29T05:16:20;101447.41;;;8.21;100.00
69318;BME280;56457;52.190;4.440;2023-03-29T05:17:20;101453.50;;;8.22;100.00
69318;BME280;56457;52.190;4.440;2023-03-29T05:18:21;101450.03;;;8.24;100.00
69318;BME280;56457;52.190;4.440;2023-03-29T05:19:21;101457.00;;;8.25;100.00
69318;BME280;56457;52.190;4.440;2023-03-29T05:20:21;101457.00;;;8.22;100.00
69318;BME280;56457;52.190;4.440;2023-03-29T05:21:23;101449.16;;;8.24;100.00
69318;BME280;56457;52.190;4.440;2023-03-29T05:22:25;101457.00;;;8.24;100.00
69318;BME280;56457;52.190;4.440;2023-03-29T05:23:26;101456.97;;;8.21;100.00
69318;BME280;56457;52.190;4.440;2023-03-29T05:24:26;101444.75;;;8.20;100.00
69318;BME280;56457;52.190;4.440;2023-03-29T05:25:26;101442.13;;;8.20;100.00
69318;BME280;56457;52.190;4.440;2023-03-29T05:26:27;101440.34;;;8.16;100.00
69318;BME280;56457;52.190;4.440;2023-03-29T05:27:27;101447.34;;;8.17;100.00
69318;BME280;56457;52.190;4.440;2023-03-29T05:28:28;101445.59;;;8.16;100.00
69318;BME280;56457;52.190;4.440;2023-03-29T05:29:29;101443.84;;;8.18;100.00
69318;BME280;56457;52.190;4.440;2023-03-29T05:30:31;101442.97;;;8.17;100.00
69318;BME280;56457;52.190;4.440;2023-03-29T05:31:32;101447.34;;;8.18;100.00
69318;BME280;56457;52.190;4.440;2023-03-29T05:32:34;101443.91;;;8.21;100.00
69318;BME280;56457;52.190;4.440;2023-03-29T05:33:35;101448.28;;;8.22;100.00
69318;BME280;56457;52.190;4.440;2023-03-29T05:34:36;101442.19;;;8.24;100.00
69318;BME280;56457;52.190;4.440;2023-03-29T05:35:36;101448.28;;;8.23;100.00
69318;BME280;56457;52.190;4.440;2023-03-29T05:36:36;101434.31;;;8.21;100.00
69318;BME280;56457;52.190;4.440;2023-03-29T05:37:38;101443.06;;;8.23;100.00
69318;BME280;56457;52.190;4.440;2023-03-29T05:38:38;101449.22;;;8.27;100.00
69318;BME280;56457;52.190;4.440;2023-03-29T05:39:39;101440.50;;;8.28;100.00